createdAt,value
2023-03-01T00:00:16.860Z,2.17
2023-03-01T00:02:49.428Z,2.15
2023-03-01T00:05:19.363Z,2.40
2023-03-01T00:07:49.466Z,2.00
2023-03-01T00:10:20.076Z,2.33
2023-03-01T00:12:50.167Z,1.95
2023-03-01T00:15:20.159Z,2.38
2023-03-01T00:17:52.701Z,2.38
2023-03-01T00:20:22.629Z,2.10
2023-03-01T00:22:52.572Z,2.35
2023-03-01T00:25:22.508Z,1.90
2023-03-01T00:27:52.572Z,2.58
2023-03-01T00:30:23.575Z,2.28
2023-03-01T00:32:56.486Z,2.05
2023-03-01T00:35:27.005Z,2.25
2023-03-01T00:37:59.159Z,3.10
2023-03-01T00:40:29.313Z,3.05
2023-03-01T00:42:59.408Z,2.95
2023-03-01T00:45:29.324Z,2.33
2023-03-01T00:48:01.992Z,2.42
2023-03-01T00:50:32.518Z,2.33
2023-03-01T00:53:02.851Z,2.22
2023-03-01T00:55:32.776Z,2.47
2023-03-01T00:58:02.925Z,2.35
2023-03-01T01:00:33.002Z,2.63
2023-03-01T01:03:05.677Z,2.75
2023-03-01T01:05:39.104Z,3.25
2023-03-01T01:08:09.599Z,2.78
2023-03-01T01:10:39.671Z,3.15
2023-03-01T01:13:10.404Z,2.55
2023-03-01T01:15:40.623Z,2.53
2023-03-01T01:18:13.340Z,2.97
2023-03-01T01:20:43.400Z,2.65
2023-03-01T01:23:13.391Z,2.55
2023-03-01T01:25:43.788Z,2.63
2023-03-01T01:28:13.963Z,2.38
2023-03-01T01:30:43.940Z,2.17
2023-03-01T01:33:16.489Z,2.58
2023-03-01T01:35:49.075Z,2.13
2023-03-01T01:38:18.904Z,2.08
2023-03-01T01:40:50.086Z,2.15
2023-03-01T01:43:25.583Z,2.78
2023-03-01T01:46:00.813Z,2.17
2023-03-01T01:48:44.820Z,2.22
2023-03-01T01:51:17.941Z,2.38
2023-03-01T01:53:51.407Z,2.20
2023-03-01T01:56:22.998Z,2.27
2023-03-01T01:58:54.548Z,2.40
2023-03-01T02:01:24.677Z,2.10
2023-03-01T02:03:57.799Z,2.20
2023-03-01T02:06:33.919Z,2.60
2023-03-01T02:09:08.940Z,2.45
2023-03-01T02:11:40.877Z,2.40
2023-03-01T02:14:11.057Z,2.25
2023-03-01T02:16:41.056Z,2.47
2023-03-01T02:19:24.058Z,2.20
2023-03-01T02:22:07.417Z,1.73
2023-03-01T02:24:44.162Z,2.35
2023-03-01T02:27:17.374Z,2.88
2023-03-01T02:29:50.340Z,2.03
2023-03-01T02:32:25.949Z,2.05
2023-03-01T02:34:56.970Z,3.03
2023-03-01T02:37:29.236Z,2.53
2023-03-01T02:40:03.479Z,2.10
2023-03-01T02:45:09.209Z,2.25
2023-03-01T02:47:39.230Z,2.17
2023-03-01T02:50:19.483Z,1.85
2023-03-01T02:52:56.211Z,2.25
2023-03-01T02:55:27.115Z,2.40
2023-03-01T02:57:59.194Z,2.40
2023-03-01T03:00:41.533Z,2.35
2023-03-01T03:03:12.059Z,2.33
2023-03-01T03:05:42.174Z,2.60
2023-03-01T03:08:12.793Z,3.05
2023-03-01T03:10:45.861Z,2.15
2023-03-01T03:13:18.031Z,2.47
2023-03-01T03:15:50.894Z,2.40
2023-03-01T03:18:21.347Z,2.20
2023-03-01T03:20:53.890Z,2.33
2023-03-01T03:23:24.405Z,2.30
2023-03-01T03:25:54.705Z,2.15
2023-03-01T03:28:25.077Z,2.10
2023-03-01T03:30:58.098Z,2.20
2023-03-01T03:33:28.422Z,2.15
2023-03-01T03:35:58.439Z,2.30
2023-03-01T03:38:29.013Z,2.13
2023-03-01T03:41:05.279Z,2.20
2023-03-01T03:43:37.501Z,2.30
2023-03-01T03:46:11.115Z,2.10
2023-03-01T03:48:43.505Z,2.03
2023-03-01T03:51:14.643Z,2.70
2023-03-01T03:53:45.751Z,2.78
2023-03-01T03:56:16.413Z,2.80
2023-03-01T03:58:46.502Z,2.70
2023-03-01T04:01:19.149Z,2.90
2023-03-01T04:03:51.027Z,2.90
2023-03-01T04:06:21.186Z,3.10
2023-03-01T04:08:52.113Z,2.90
2023-03-01T04:11:31.631Z,3.13
2023-03-01T04:14:02.618Z,2.55
2023-03-01T04:16:35.338Z,1.98
2023-03-01T04:19:07.508Z,3.00
2023-03-01T04:21:37.631Z,2.97
2023-03-01T04:24:10.031Z,2.53
2023-03-01T04:26:40.216Z,2.80
2023-03-01T04:29:10.539Z,2.40
2023-03-01T04:31:43.584Z,3.00
2023-03-01T04:34:15.189Z,2.45
2023-03-01T04:36:45.346Z,3.25
2023-03-01T04:39:15.856Z,2.00
2023-03-01T04:41:46.945Z,3.58
2023-03-01T04:44:17.189Z,3.47
2023-03-01T04:46:52.239Z,2.55
2023-03-01T04:49:22.458Z,3.08
2023-03-01T04:51:52.462Z,3.03
2023-03-01T04:54:22.715Z,3.03
2023-03-01T04:56:52.743Z,3.03
2023-03-01T04:59:23.742Z,3.00
2023-03-01T05:01:57.597Z,2.80
2023-03-01T05:04:28.494Z,2.03
2023-03-01T05:07:00.049Z,3.20
2023-03-01T05:09:30.285Z,2.92
2023-03-01T05:12:00.254Z,3.65
2023-03-01T05:14:30.393Z,2.55
2023-03-01T05:17:05.024Z,3.08
2023-03-01T05:19:35.438Z,2.53
2023-03-01T05:22:05.501Z,2.80
2023-03-01T05:24:37.331Z,3.22
2023-03-01T05:27:07.435Z,2.85
2023-03-01T05:29:37.487Z,3.00
2023-03-01T05:32:10.859Z,3.22
2023-03-01T05:34:41.220Z,2.72
2023-03-01T05:37:11.722Z,2.70
2023-03-01T05:39:42.916Z,2.55
2023-03-01T05:42:14.946Z,3.13
2023-03-01T05:44:45.792Z,2.50
2023-03-01T05:47:18.482Z,2.75
2023-03-01T05:49:48.784Z,2.75
2023-03-01T05:52:18.922Z,2.40
2023-03-01T05:54:49.022Z,2.67
2023-03-01T05:57:18.894Z,2.30
2023-03-01T05:59:49.833Z,2.92
2023-03-01T06:02:22.599Z,2.78
2023-03-01T06:04:52.765Z,2.45
2023-03-01T06:07:23.129Z,2.42
2023-03-01T06:09:53.237Z,2.25
2023-03-01T06:12:23.297Z,2.40
2023-03-01T06:14:53.340Z,2.13
2023-03-01T06:17:25.943Z,2.15
2023-03-01T06:19:56.010Z,2.40
2023-03-01T06:22:26.027Z,2.00
2023-03-01T06:24:56.086Z,2.53
2023-03-01T06:27:26.163Z,2.33
2023-03-01T06:29:56.394Z,2.55
2023-03-01T06:32:29.362Z,2.35
2023-03-01T06:34:59.676Z,2.30
2023-03-01T06:37:30.054Z,2.60
2023-03-01T06:40:00.195Z,3.00
2023-03-01T06:42:30.465Z,2.53
2023-03-01T06:45:00.510Z,3.28
2023-03-01T06:47:34.167Z,3.33
2023-03-01T06:50:04.248Z,2.78
2023-03-01T06:52:34.646Z,3.47
2023-03-01T06:55:05.711Z,4.32
2023-03-01T06:57:35.845Z,4.03
2023-03-01T07:00:06.950Z,3.30
2023-03-01T07:02:39.727Z,3.55
2023-03-01T07:05:13.369Z,3.45
2023-03-01T07:07:43.300Z,3.45
2023-03-01T07:10:15.002Z,3.90
2023-03-01T07:12:45.119Z,2.75
2023-03-01T07:15:16.298Z,2.90
2023-03-01T07:17:51.036Z,3.13
2023-03-01T07:20:23.653Z,2.72
2023-03-01T07:22:53.578Z,2.40
2023-03-01T07:25:23.862Z,2.70
2023-03-01T07:27:55.127Z,2.63
2023-03-01T07:30:27.107Z,2.67
2023-03-01T07:33:01.136Z,2.40
2023-03-01T07:35:31.748Z,2.70
2023-03-01T07:38:01.855Z,2.72
2023-03-01T07:40:32.029Z,3.10
2023-03-01T07:43:02.632Z,2.45
2023-03-01T07:45:33.343Z,2.85
2023-03-01T07:48:06.007Z,3.80
2023-03-01T07:50:35.977Z,3.10
2023-03-01T07:53:06.390Z,2.85
2023-03-01T07:55:36.355Z,3.53
2023-03-01T07:58:06.626Z,3.40
2023-03-01T08:00:36.836Z,3.30
2023-03-01T08:03:09.582Z,2.97
2023-03-01T08:05:39.721Z,2.42
2023-03-01T08:08:09.754Z,3.80
2023-03-01T08:10:40.534Z,3.00
2023-03-01T08:13:10.578Z,2.95
2023-03-01T08:15:40.780Z,2.53
2023-03-01T08:18:13.553Z,3.25
2023-03-01T08:20:44.058Z,3.65
2023-03-01T08:23:15.114Z,4.70
2023-03-01T08:25:45.117Z,2.50
2023-03-01T08:28:15.145Z,3.30
2023-03-01T08:30:45.067Z,3.78
2023-03-01T08:33:17.730Z,2.63
2023-03-01T08:35:47.918Z,5.68
2023-03-01T08:38:17.962Z,3.85
2023-03-01T08:40:48.259Z,5.18
2023-03-01T08:43:18.840Z,4.28
2023-03-01T08:45:49.256Z,3.60
2023-03-01T08:48:22.229Z,3.28
2023-03-01T08:50:52.224Z,3.20
2023-03-01T08:53:25.149Z,3.17
2023-03-01T08:55:55.365Z,4.18
2023-03-01T08:58:25.642Z,3.42
2023-03-01T09:00:57.587Z,3.70
2023-03-01T09:03:31.208Z,2.92
2023-03-01T09:06:05.122Z,2.50
2023-03-01T09:08:37.997Z,4.60
2023-03-01T09:11:09.788Z,2.67
2023-03-01T09:13:42.907Z,2.78
2023-03-01T09:16:17.768Z,2.67
2023-03-01T09:18:54.601Z,2.40
2023-03-01T09:21:39.736Z,2.88
2023-03-01T09:24:15.905Z,1.90
2023-03-01T09:26:48.821Z,2.55
2023-03-01T09:29:20.450Z,2.13
2023-03-01T09:31:50.511Z,1.67
2023-03-01T09:34:24.548Z,2.42
2023-03-01T09:36:54.932Z,2.17
2023-03-01T09:39:25.233Z,1.80
2023-03-01T09:42:04.139Z,1.98
2023-03-01T09:44:44.155Z,2.30
2023-03-01T09:47:22.360Z,2.45
2023-03-01T09:50:05.255Z,1.75
2023-03-01T09:52:43.462Z,1.83
2023-03-01T09:55:17.470Z,1.85
2023-03-01T09:57:54.351Z,2.38
2023-03-01T10:00:39.525Z,1.90
2023-03-01T10:03:20.986Z,2.20
2023-03-01T10:06:03.526Z,2.42
2023-03-01T10:08:42.778Z,2.17
2023-03-01T10:11:35.236Z,3.25
2023-03-01T10:14:09.874Z,3.10
2023-03-01T10:16:49.203Z,2.72
2023-03-01T10:19:31.020Z,2.70
2023-03-01T10:22:08.134Z,2.33
2023-03-01T10:24:39.567Z,2.45
2023-03-01T10:27:18.278Z,2.38
2023-03-01T10:29:54.455Z,2.10
2023-03-01T10:32:25.261Z,2.80
2023-03-01T10:34:55.671Z,2.42
2023-03-01T10:37:29.248Z,2.90
2023-03-01T10:40:01.796Z,4.88
2023-03-01T10:42:34.352Z,2.42
2023-03-01T10:45:20.223Z,2.10
2023-03-01T10:47:50.591Z,2.95
2023-03-01T10:50:26.453Z,3.00
2023-03-01T10:53:07.742Z,2.80
2023-03-01T10:55:39.665Z,2.83
2023-03-01T10:58:21.602Z,2.55
2023-03-01T11:00:55.080Z,2.40
2023-03-01T11:03:27.719Z,1.90
2023-03-01T11:06:01.272Z,2.33
2023-03-01T11:08:40.510Z,3.38
2023-03-01T11:11:21.041Z,2.50
2023-03-01T11:13:55.870Z,2.10
2023-03-01T11:16:32.588Z,2.03
2023-03-01T11:19:18.687Z,1.35
2023-03-01T11:21:59.707Z,3.15
2023-03-01T11:24:38.459Z,2.05
2023-03-01T11:27:16.236Z,1.80
2023-03-01T11:29:52.221Z,1.55
2023-03-01T11:32:26.184Z,2.15
2023-03-01T11:35:01.726Z,1.95
2023-03-01T11:37:37.951Z,1.38
2023-03-01T11:40:17.110Z,2.13
2023-03-01T11:42:58.504Z,1.70
2023-03-01T11:45:36.276Z,2.22
2023-03-01T11:48:37.023Z,1.85
2023-03-01T11:51:21.802Z,2.00
2023-03-01T11:54:05.187Z,1.70
2023-03-01T11:56:42.184Z,1.63
2023-03-01T11:59:33.920Z,1.55
2023-03-01T12:02:26.106Z,1.73
2023-03-01T12:05:18.746Z,1.63
2023-03-01T12:07:55.905Z,1.10
2023-03-01T12:10:30.642Z,2.03
2023-03-01T12:13:17.792Z,1.92
2023-03-01T12:16:10.643Z,2.33
2023-03-01T12:19:05.714Z,1.60
2023-03-01T12:21:47.638Z,1.73
2023-03-01T12:24:41.052Z,1.20
2023-03-01T12:27:24.275Z,1.13
2023-03-01T12:30:08.245Z,1.30
2023-03-01T12:32:51.087Z,1.20
2023-03-01T12:35:44.553Z,1.70
2023-03-01T12:38:28.828Z,1.92
2023-03-01T12:41:43.679Z,1.23
2023-03-01T12:44:32.200Z,2.20
2023-03-01T12:47:22.223Z,2.65
2023-03-01T12:49:55.124Z,1.90
2023-03-01T12:52:28.287Z,2.13
2023-03-01T12:55:01.769Z,1.92
2023-03-01T12:57:40.080Z,1.80
2023-03-01T13:00:27.734Z,2.15
2023-03-01T13:03:08.604Z,2.05
2023-03-01T13:05:46.402Z,1.60
2023-03-01T13:08:24.548Z,1.88
2023-03-01T13:11:00.771Z,2.15
2023-03-01T13:13:32.230Z,2.40
2023-03-01T13:16:26.861Z,2.50
2023-03-01T13:19:10.620Z,2.20
2023-03-01T13:21:40.561Z,3.05
2023-03-01T13:24:28.691Z,2.08
2023-03-01T13:27:30.598Z,2.28
2023-03-01T13:30:06.656Z,2.65
2023-03-01T13:32:46.654Z,1.80
2023-03-01T13:35:49.214Z,2.33
2023-03-01T13:38:48.404Z,1.63
2023-03-01T13:41:19.699Z,1.65
2023-03-01T13:43:51.043Z,3.40
2023-03-01T13:46:25.546Z,2.67
2023-03-01T13:48:59.021Z,2.67
2023-03-01T13:51:31.172Z,2.65
2023-03-01T13:54:03.969Z,2.58
2023-03-01T13:56:40.641Z,2.03
2023-03-01T13:59:17.901Z,2.80
2023-03-01T14:01:48.140Z,2.30
2023-03-01T14:04:25.262Z,2.20
2023-03-01T14:06:55.857Z,2.22
2023-03-01T14:09:33.409Z,1.50
2023-03-01T14:12:14.875Z,2.22
2023-03-01T14:14:52.131Z,2.15
2023-03-01T14:17:45.048Z,2.05
2023-03-01T14:20:23.160Z,2.22
2023-03-01T14:22:56.552Z,1.58
2023-03-01T14:25:35.282Z,1.38
2023-03-01T14:28:15.561Z,1.90
2023-03-01T14:30:47.912Z,1.10
2023-03-01T14:33:27.513Z,2.60
2023-03-01T14:36:00.642Z,2.00
2023-03-01T14:38:37.480Z,3.22
2023-03-01T14:41:13.749Z,1.98
2023-03-01T14:43:49.124Z,1.50
2023-03-01T14:46:25.538Z,2.22
2023-03-01T14:48:59.210Z,2.00
2023-03-01T14:51:29.480Z,2.50
2023-03-01T14:54:00.276Z,1.70
2023-03-01T14:56:47.960Z,1.60
2023-03-01T14:59:18.077Z,1.63
2023-03-01T15:01:48.681Z,1.60
2023-03-01T15:04:19.193Z,1.83
2023-03-01T15:06:50.272Z,1.48
2023-03-01T15:09:21.748Z,1.40
2023-03-01T15:11:54.277Z,2.20
2023-03-01T15:14:52.176Z,2.38
2023-03-01T15:17:35.567Z,1.33
2023-03-01T15:20:08.631Z,1.10
2023-03-01T15:22:49.930Z,1.50
2023-03-01T15:25:22.411Z,1.40
2023-03-01T15:27:57.351Z,1.35
2023-03-01T15:30:35.725Z,1.60
2023-03-01T15:33:22.716Z,1.20
2023-03-01T15:35:55.044Z,1.50
2023-03-01T15:38:36.145Z,1.40
2023-03-01T15:41:09.113Z,1.80
2023-03-01T15:43:50.902Z,2.05
2023-03-01T15:46:27.796Z,1.55
2023-03-01T15:49:00.776Z,1.50
2023-03-01T15:51:36.980Z,1.40
2023-03-01T15:54:10.415Z,1.58
2023-03-01T15:56:40.531Z,1.47
2023-03-01T15:59:15.155Z,1.80
2023-03-01T16:01:45.401Z,2.63
2023-03-01T16:04:21.723Z,1.90
2023-03-01T16:06:55.450Z,2.05
2023-03-01T16:09:29.710Z,1.10
2023-03-01T16:12:00.006Z,1.45
2023-03-01T16:14:32.803Z,2.53
2023-03-01T16:17:02.894Z,1.25
2023-03-01T16:19:33.420Z,1.60
2023-03-01T16:22:03.750Z,1.10
2023-03-01T16:24:37.005Z,1.97
2023-03-01T16:27:07.517Z,1.40
2023-03-01T16:29:42.621Z,1.25
2023-03-01T16:32:12.669Z,1.40
2023-03-01T16:34:42.730Z,1.02
2023-03-01T16:37:12.956Z,1.45
2023-03-01T16:39:43.196Z,1.45
2023-03-01T16:42:13.150Z,1.52
2023-03-01T16:44:46.660Z,0.93
2023-03-01T16:47:16.699Z,1.10
2023-03-01T16:49:47.217Z,0.80
2023-03-01T16:52:17.615Z,0.95
2023-03-01T16:54:47.629Z,1.20
2023-03-01T16:57:18.421Z,1.10
2023-03-01T16:59:51.138Z,1.15
2023-03-01T17:02:34.123Z,1.10
2023-03-01T17:05:04.731Z,0.90
2023-03-01T17:07:36.927Z,1.13
2023-03-01T17:10:09.973Z,1.00
2023-03-01T17:12:40.608Z,0.90
2023-03-01T17:15:14.743Z,1.20
2023-03-01T17:17:44.942Z,0.90
2023-03-01T17:20:16.184Z,1.00
2023-03-01T17:25:19.003Z,0.85
2023-03-01T17:27:49.378Z,0.60
2023-03-01T17:30:22.624Z,0.85
2023-03-01T17:32:55.796Z,0.83
2023-03-01T17:35:25.885Z,0.90
2023-03-01T17:37:56.457Z,1.10
2023-03-01T17:40:27.052Z,0.90
2023-03-01T17:42:57.246Z,0.85
2023-03-01T17:45:30.201Z,0.90
2023-03-01T17:48:00.705Z,1.08
2023-03-01T17:50:30.821Z,0.88
2023-03-01T17:53:01.182Z,1.23
2023-03-01T17:55:31.202Z,1.02
2023-03-01T17:58:01.529Z,1.45
2023-03-01T18:00:34.473Z,1.02
2023-03-01T18:03:04.453Z,1.30
2023-03-01T18:05:35.593Z,1.10
2023-03-01T18:08:05.775Z,0.88
2023-03-01T18:10:37.611Z,1.58
2023-03-01T18:13:08.218Z,1.23
2023-03-01T18:15:41.093Z,1.70
2023-03-01T18:18:11.284Z,1.40
2023-03-01T18:20:41.284Z,1.70
2023-03-01T18:23:11.291Z,1.48
2023-03-01T18:25:42.692Z,1.30
2023-03-01T18:28:13.160Z,1.23
2023-03-01T18:30:45.801Z,1.55
2023-03-01T18:33:15.971Z,1.30
2023-03-01T18:35:46.242Z,1.33
2023-03-01T18:38:16.381Z,1.63
2023-03-01T18:40:46.637Z,1.13
2023-03-01T18:43:17.060Z,1.98
2023-03-01T18:45:50.012Z,1.77
2023-03-01T18:48:20.758Z,2.08
2023-03-01T18:50:51.106Z,2.92
2023-03-01T18:53:23.604Z,3.78
2023-03-01T18:55:53.737Z,3.00
2023-03-01T18:58:23.751Z,3.50
2023-03-01T19:00:56.815Z,3.78
2023-03-01T19:03:26.777Z,2.80
2023-03-01T19:05:57.068Z,2.80
2023-03-01T19:08:27.023Z,2.67
2023-03-01T19:11:01.341Z,2.10
2023-03-01T19:13:31.640Z,2.38
2023-03-01T19:16:12.836Z,2.08
2023-03-01T19:18:50.226Z,2.40
2023-03-01T19:21:25.432Z,2.78
2023-03-01T19:23:56.338Z,2.60
2023-03-01T19:26:28.734Z,1.83
2023-03-01T19:28:59.917Z,1.60
2023-03-01T19:31:34.038Z,1.50
2023-03-01T19:34:12.533Z,2.45
2023-03-01T19:36:43.413Z,2.38
2023-03-01T19:39:16.279Z,2.03
2023-03-01T19:41:49.863Z,1.40
2023-03-01T19:44:25.989Z,1.88
2023-03-01T19:47:00.112Z,1.45
2023-03-01T19:49:30.303Z,1.60
2023-03-01T19:52:00.192Z,1.33
2023-03-01T19:54:30.285Z,1.50
2023-03-01T19:57:00.734Z,1.80
2023-03-01T19:59:30.957Z,2.00
2023-03-01T20:02:04.120Z,2.88
2023-03-01T20:04:34.440Z,1.65
2023-03-01T20:07:07.341Z,2.13
2023-03-01T20:09:37.348Z,2.10
2023-03-01T20:12:07.496Z,2.03
2023-03-01T20:14:37.654Z,2.20
2023-03-01T20:17:10.430Z,1.60
2023-03-01T20:19:40.631Z,2.08
2023-03-01T20:22:15.062Z,1.58
2023-03-01T20:24:45.308Z,1.80
2023-03-01T20:27:15.243Z,1.60
2023-03-01T20:29:46.087Z,1.67
2023-03-01T20:32:18.814Z,1.60
2023-03-01T20:34:48.825Z,1.98
2023-03-01T20:37:18.977Z,1.50
2023-03-01T20:39:48.927Z,1.63
2023-03-01T20:42:19.177Z,2.03
2023-03-01T20:44:49.365Z,1.85
2023-03-01T20:47:23.407Z,1.55
2023-03-01T20:49:53.850Z,2.10
2023-03-01T20:52:23.835Z,1.65
2023-03-01T20:54:53.786Z,1.63
2023-03-01T20:57:23.900Z,1.45
2023-03-01T20:59:53.856Z,2.10
2023-03-01T21:02:26.494Z,1.83
2023-03-01T21:04:56.446Z,1.90
2023-03-01T21:07:26.405Z,2.30
2023-03-01T21:09:56.403Z,2.25
2023-03-01T21:12:26.438Z,2.22
2023-03-01T21:14:56.422Z,2.40
2023-03-01T21:17:29.098Z,1.75
2023-03-01T21:19:59.336Z,2.08
2023-03-01T21:22:30.337Z,1.98
2023-03-01T21:25:00.192Z,1.80
2023-03-01T21:27:30.075Z,1.90
2023-03-01T21:30:00.103Z,1.92
2023-03-01T21:32:32.968Z,2.42
2023-03-01T21:35:03.549Z,2.00
2023-03-01T21:37:33.498Z,2.58
2023-03-01T21:40:04.417Z,2.35
2023-03-01T21:42:35.141Z,2.17
2023-03-01T21:45:05.207Z,2.53
2023-03-01T21:47:39.500Z,2.47
2023-03-01T21:52:39.710Z,2.83
2023-03-01T21:55:12.327Z,1.65
2023-03-01T21:57:44.697Z,3.15
2023-03-01T22:00:18.161Z,1.95
2023-03-01T22:02:50.674Z,2.00
2023-03-01T22:05:20.589Z,2.00
2023-03-01T22:07:50.684Z,1.90
2023-03-01T22:10:27.026Z,1.77
2023-03-01T22:12:57.967Z,2.28
2023-03-01T22:15:30.072Z,1.75
2023-03-01T22:18:02.965Z,2.28
2023-03-01T22:20:34.981Z,1.73
2023-03-01T22:23:08.476Z,2.08
2023-03-01T22:25:47.479Z,1.73
2023-03-01T22:28:19.853Z,2.13
2023-03-01T22:30:50.274Z,1.30
2023-03-01T22:33:24.141Z,1.63
2023-03-01T22:35:57.768Z,1.95
2023-03-01T22:38:30.941Z,1.85
2023-03-01T22:41:03.063Z,1.85
2023-03-01T22:43:36.226Z,2.15
2023-03-01T22:46:15.039Z,2.55
2023-03-01T22:48:54.080Z,2.05
2023-03-01T22:51:28.131Z,2.13
2023-03-01T22:54:02.750Z,2.88
2023-03-01T22:56:39.605Z,3.22
2023-03-01T22:59:13.814Z,2.80
2023-03-01T23:01:47.765Z,2.45
2023-03-01T23:04:22.860Z,4.38
2023-03-01T23:06:55.184Z,3.40
2023-03-01T23:09:30.210Z,3.63
2023-03-01T23:12:03.526Z,3.88
2023-03-01T23:14:36.821Z,2.58
2023-03-01T23:17:10.835Z,2.58
2023-03-01T23:19:44.094Z,2.92
2023-03-01T23:22:17.256Z,3.10
2023-03-01T23:24:49.033Z,3.38
2023-03-01T23:27:19.831Z,3.97
2023-03-01T23:29:51.229Z,2.85
2023-03-01T23:32:23.956Z,3.45
2023-03-01T23:34:57.988Z,2.63
2023-03-01T23:37:32.689Z,2.75
2023-03-01T23:40:06.225Z,3.45
2023-03-01T23:42:36.448Z,3.00
2023-03-01T23:45:07.863Z,4.85
2023-03-01T23:47:37.971Z,4.15
2023-03-01T23:50:13.011Z,5.07
2023-03-01T23:52:44.331Z,5.30
2023-03-01T23:55:15.684Z,5.18
2023-03-01T23:57:45.884Z,5.88
